sensor_id;sensor_type;location;lat;lon;timestamp;P1;durP1;ratioP1;P2;durP2;ratioP2
12848;SDS011;6493;50.928;7.172;2023-04-24T00:01:30;0.20;;;0.20;;
12848;SDS011;6493;50.928;7.172;2023-04-24T00:06:35;0.10;;;0.10;;
12848;SDS011;6493;50.928;7.172;2023-04-24T00:11:39;0.20;;;0.20;;
12848;SDS011;6493;50.928;7.172;2023-04-24T00:16:45;0.10;;;0.10;;
12848;SDS011;6493;50.928;7.172;2023-04-24T00:21:48;0.70;;;0.40;;
12848;SDS011;6493;50.928;7.172;2023-04-24T00:26:52;0.10;;;0.10;;
12848;SDS011;6493;50.928;7.172;2023-04-24T00:31:56;0.53;;;0.20;;
12848;SDS011;6493;50.928;7.172;2023-04-24T00:37:00;0.73;;;0.20;;
12848;SDS011;6493;50.928;7.172;2023-04-24T00:42:03;0.20;;;0.20;;
12848;SDS011;6493;50.928;7.172;2023-04-24T00:47:09;0.10;;;0.10;;
12848;SDS011;6493;50.928;7.172;2023-04-24T00:52:13;0.10;;;0.10;;
12848;SDS011;6493;50.928;7.172;2023-04-24T00:57:19;0.10;;;0.10;;
12848;SDS011;6493;50.928;7.172;2023-04-24T01:02:24;0.17;;;0.17;;
12848;SDS011;6493;50.928;7.172;2023-04-24T01:07:28;0.10;;;0.10;;
12848;SDS011;6493;50.928;7.172;2023-04-24T01:12:32;0.17;;;0.17;;
12848;SDS011;6493;50.928;7.172;2023-04-24T01:17:36;0.20;;;0.20;;
12848;SDS011;6493;50.928;7.172;2023-04-24T01:22:42;0.10;;;0.10;;
12848;SDS011;6493;50.928;7.172;2023-04-24T01:27:45;0.10;;;0.10;;
12848;SDS011;6493;50.928;7.172;2023-04-24T01:32:48;0.10;;;0.10;;
12848;SDS011;6493;50.928;7.172;2023-04-24T01:37:53;0.33;;;0.30;;
12848;SDS011;6493;50.928;7.172;2023-04-24T01:42:57;0.40;;;0.30;;
12848;SDS011;6493;50.928;7.172;2023-04-24T01:48:00;0.83;;;0.20;;
12848;SDS011;6493;50.928;7.172;2023-04-24T01:53:05;0.60;;;0.20;;
12848;SDS011;6493;50.928;7.172;2023-04-24T01:58:10;0.67;;;0.30;;
12848;SDS011;6493;50.928;7.172;2023-04-24T02:03:13;0.30;;;0.27;;
12848;SDS011;6493;50.928;7.172;2023-04-24T02:08:18;0.43;;;0.30;;
12848;SDS011;6493;50.928;7.172;2023-04-24T02:13:23;1.07;;;0.30;;
12848;SDS011;6493;50.928;7.172;2023-04-24T02:18:26;0.30;;;0.30;;
12848;SDS011;6493;50.928;7.172;2023-04-24T02:23:32;0.83;;;0.30;;
12848;SDS011;6493;50.928;7.172;2023-04-24T02:28:35;0.50;;;0.50;;
12848;SDS011;6493;50.928;7.172;2023-04-24T02:33:38;0.57;;;0.53;;
12848;SDS011;6493;50.928;7.172;2023-04-24T02:38:43;0.23;;;0.23;;
12848;SDS011;6493;50.928;7.172;2023-04-24T02:43:47;0.60;;;0.40;;
12848;SDS011;6493;50.928;7.172;2023-04-24T02:48:50;0.30;;;0.30;;
12848;SDS011;6493;50.928;7.172;2023-04-24T02:53:54;0.80;;;0.60;;
12848;SDS011;6493;50.928;7.172;2023-04-24T02:58:58;1.37;;;0.87;;
12848;SDS011;6493;50.928;7.172;2023-04-24T03:04:02;2.13;;;1.00;;
12848;SDS011;6493;50.928;7.172;2023-04-24T03:09:07;0.73;;;0.70;;
12848;SDS011;6493;50.928;7.172;2023-04-24T03:14:10;1.17;;;1.03;;
12848;SDS011;6493;50.928;7.172;2023-04-24T03:19:13;0.97;;;0.63;;
12848;SDS011;6493;50.928;7.172;2023-04-24T03:24:47;0.80;;;0.80;;
12848;SDS011;6493;50.928;7.172;2023-04-24T03:29:52;0.83;;;0.83;;
12848;SDS011;6493;50.928;7.172;2023-04-24T03:35:01;1.40;;;0.93;;
12848;SDS011;6493;50.928;7.172;2023-04-24T03:40:08;0.87;;;0.87;;
12848;SDS011;6493;50.928;7.172;2023-04-24T03:45:12;1.77;;;1.10;;
12848;SDS011;6493;50.928;7.172;2023-04-24T03:50:21;0.90;;;0.87;;
12848;SDS011;6493;50.928;7.172;2023-04-24T03:55:26;1.23;;;1.10;;
12848;SDS011;6493;50.928;7.172;2023-04-24T04:00:29;1.23;;;1.13;;
12848;SDS011;6493;50.928;7.172;2023-04-24T04:06:06;1.20;;;1.10;;
12848;SDS011;6493;50.928;7.172;2023-04-24T04:11:14;1.37;;;0.90;;
12848;SDS011;6493;50.928;7.172;2023-04-24T04:16:19;0.90;;;0.90;;
12848;SDS011;6493;50.928;7.172;2023-04-24T04:21:25;1.00;;;0.90;;
12848;SDS011;6493;50.928;7.172;2023-04-24T04:26:39;0.90;;;0.90;;
12848;SDS011;6493;50.928;7.172;2023-04-24T04:31:44;1.07;;;1.00;;
12848;SDS011;6493;50.928;7.172;2023-04-24T04:36:49;1.37;;;0.90;;
12848;SDS011;6493;50.928;7.172;2023-04-24T04:42:03;0.80;;;0.80;;
12848;SDS011;6493;50.928;7.172;2023-04-24T04:47:14;1.37;;;1.10;;
12848;SDS011;6493;50.928;7.172;2023-04-24T04:52:18;1.30;;;1.03;;
12848;SDS011;6493;50.928;7.172;2023-04-24T04:57:27;1.23;;;1.13;;
12848;SDS011;6493;50.928;7.172;2023-04-24T05:02:32;1.10;;;1.00;;
12848;SDS011;6493;50.928;7.172;2023-04-24T05:07:35;1.53;;;1.23;;
12848;SDS011;6493;50.928;7.172;2023-04-24T05:12:40;1.40;;;1.10;;
12848;SDS011;6493;50.928;7.172;2023-04-24T05:17:46;2.37;;;1.50;;
12848;SDS011;6493;50.928;7.172;2023-04-24T05:22:50;1.60;;;1.20;;
12848;SDS011;6493;50.928;7.172;2023-04-24T05:27:58;1.10;;;1.00;;
12848;SDS011;6493;50.928;7.172;2023-04-24T05:33:02;1.30;;;1.20;;
12848;SDS011;6493;50.928;7.172;2023-04-24T05:38:08;1.20;;;1.10;;
12848;SDS011;6493;50.928;7.172;2023-04-24T05:43:12;1.13;;;1.03;;
12848;SDS011;6493;50.928;7.172;2023-04-24T05:48:16;1.87;;;1.50;;
12848;SDS011;6493;50.928;7.172;2023-04-24T05:53:19;1.60;;;1.50;;
12848;SDS011;6493;50.928;7.172;2023-04-24T05:58:24;1.40;;;1.30;;
12848;SDS011;6493;50.928;7.172;2023-04-24T06:03:28;1.90;;;1.50;;
12848;SDS011;6493;50.928;7.172;2023-04-24T06:08:31;1.73;;;1.30;;
12848;SDS011;6493;50.928;7.172;2023-04-24T06:13:36;1.40;;;1.30;;
12848;SDS011;6493;50.928;7.172;2023-04-24T06:19:02;1.23;;;1.10;;
12848;SDS011;6493;50.928;7.172;2023-04-24T06:24:06;1.20;;;1.10;;
12848;SDS011;6493;50.928;7.172;2023-04-24T06:29:10;1.63;;;1.10;;
12848;SDS011;6493;50.928;7.172;2023-04-24T06:34:13;1.00;;;0.90;;
12848;SDS011;6493;50.928;7.172;2023-04-24T06:39:16;1.27;;;1.10;;
12848;SDS011;6493;50.928;7.172;2023-04-24T06:44:21;1.17;;;1.07;;
12848;SDS011;6493;50.928;7.172;2023-04-24T06:49:25;1.23;;;1.00;;
12848;SDS011;6493;50.928;7.172;2023-04-24T06:54:28;0.87;;;0.83;;
12848;SDS011;6493;50.928;7.172;2023-04-24T06:59:33;1.87;;;1.03;;
12848;SDS011;6493;50.928;7.172;2023-04-24T07:04:36;2.17;;;1.13;;
12848;SDS011;6493;50.928;7.172;2023-04-24T07:09:39;1.00;;;1.00;;
12848;SDS011;6493;50.928;7.172;2023-04-24T07:14:45;0.80;;;0.80;;
12848;SDS011;6493;50.928;7.172;2023-04-24T07:19:49;0.60;;;0.60;;
12848;SDS011;6493;50.928;7.172;2023-04-24T07:24:52;0.93;;;0.87;;
12848;SDS011;6493;50.928;7.172;2023-04-24T07:29:56;0.60;;;0.60;;
12848;SDS011;6493;50.928;7.172;2023-04-24T07:34:59;0.43;;;0.43;;
12848;SDS011;6493;50.928;7.172;2023-04-24T07:40:03;0.50;;;0.50;;
12848;SDS011;6493;50.928;7.172;2023-04-24T07:45:08;0.33;;;0.33;;
12848;SDS011;6493;50.928;7.172;2023-04-24T07:50:11;0.87;;;0.60;;
12848;SDS011;6493;50.928;7.172;2023-04-24T07:55:15;1.50;;;0.50;;
12848;SDS011;6493;50.928;7.172;2023-04-24T08:00:19;0.50;;;0.50;;
12848;SDS011;6493;50.928;7.172;2023-04-24T08:05:23;0.50;;;0.30;;
12848;SDS011;6493;50.928;7.172;2023-04-24T08:10:28;0.30;;;0.23;;
12848;SDS011;6493;50.928;7.172;2023-04-24T08:15:33;0.30;;;0.30;;
12848;SDS011;6493;50.928;7.172;2023-04-24T08:20:36;0.20;;;0.20;;
12848;SDS011;6493;50.928;7.172;2023-04-24T08:25:40;0.53;;;0.40;;
12848;SDS011;6493;50.928;7.172;2023-04-24T08:30:44;0.40;;;0.30;;
12848;SDS011;6493;50.928;7.172;2023-04-24T08:35:48;0.33;;;0.33;;
12848;SDS011;6493;50.928;7.172;2023-04-24T08:40:51;0.40;;;0.30;;
12848;SDS011;6493;50.928;7.172;2023-04-24T08:45:57;0.20;;;0.20;;
12848;SDS011;6493;50.928;7.172;2023-04-24T08:51:01;0.40;;;0.27;;
12848;SDS011;6493;50.928;7.172;2023-04-24T08:56:07;0.30;;;0.30;;
12848;SDS011;6493;50.928;7.172;2023-04-24T09:01:12;0.30;;;0.30;;
12848;SDS011;6493;50.928;7.172;2023-04-24T09:06:16;0.43;;;0.30;;
12848;SDS011;6493;50.928;7.172;2023-04-24T09:11:22;0.90;;;0.60;;
12848;SDS011;6493;50.928;7.172;2023-04-24T09:16:28;0.40;;;0.40;;
12848;SDS011;6493;50.928;7.172;2023-04-24T09:21:34;0.40;;;0.40;;
12848;SDS011;6493;50.928;7.172;2023-04-24T09:26:38;0.90;;;0.50;;
12848;SDS011;6493;50.928;7.172;2023-04-24T09:31:43;0.97;;;0.87;;
12848;SDS011;6493;50.928;7.172;2023-04-24T09:36:46;1.00;;;0.90;;
12848;SDS011;6493;50.928;7.172;2023-04-24T09:41:50;0.53;;;0.53;;
12848;SDS011;6493;50.928;7.172;2023-04-24T09:46:57;0.93;;;0.90;;
12848;SDS011;6493;50.928;7.172;2023-04-24T09:52:04;1.30;;;0.90;;
12848;SDS011;6493;50.928;7.172;2023-04-24T09:57:08;1.30;;;0.73;;
12848;SDS011;6493;50.928;7.172;2023-04-24T10:02:18;0.87;;;0.70;;
12848;SDS011;6493;50.928;7.172;2023-04-24T10:07:22;1.13;;;0.83;;
12848;SDS011;6493;50.928;7.172;2023-04-24T10:12:28;1.03;;;0.93;;
12848;SDS011;6493;50.928;7.172;2023-04-24T10:17:34;0.90;;;0.90;;
12848;SDS011;6493;50.928;7.172;2023-04-24T10:22:38;1.10;;;0.93;;
12848;SDS011;6493;50.928;7.172;2023-04-24T10:27:43;1.70;;;1.00;;
12848;SDS011;6493;50.928;7.172;2023-04-24T10:32:48;1.37;;;0.90;;
12848;SDS011;6493;50.928;7.172;2023-04-24T10:37:54;1.27;;;1.03;;
12848;SDS011;6493;50.928;7.172;2023-04-24T10:43:02;0.70;;;0.70;;
12848;SDS011;6493;50.928;7.172;2023-04-24T10:48:09;0.90;;;0.70;;
12848;SDS011;6493;50.928;7.172;2023-04-24T10:53:16;1.53;;;0.90;;
12848;SDS011;6493;50.928;7.172;2023-04-24T10:58:21;1.20;;;0.80;;
12848;SDS011;6493;50.928;7.172;2023-04-24T11:03:27;1.07;;;0.97;;
12848;SDS011;6493;50.928;7.172;2023-04-24T11:08:32;1.30;;;0.80;;
12848;SDS011;6493;50.928;7.172;2023-04-24T11:19:09;0.77;;;0.60;;
12848;SDS011;6493;50.928;7.172;2023-04-24T11:24:23;0.83;;;0.67;;
12848;SDS011;6493;50.928;7.172;2023-04-24T11:29:39;0.90;;;0.60;;
12848;SDS011;6493;50.928;7.172;2023-04-24T11:34:49;1.03;;;0.60;;
12848;SDS011;6493;50.928;7.172;2023-04-24T11:39:54;1.40;;;0.70;;
12848;SDS011;6493;50.928;7.172;2023-04-24T11:44:58;0.63;;;0.40;;
12848;SDS011;6493;50.928;7.172;2023-04-24T11:50:06;1.20;;;0.73;;
12848;SDS011;6493;50.928;7.172;2023-04-24T11:55:22;1.43;;;0.93;;
12848;SDS011;6493;50.928;7.172;2023-04-24T12:00:28;2.03;;;0.60;;
12848;SDS011;6493;50.928;7.172;2023-04-24T12:05:34;1.00;;;0.67;;
12848;SDS011;6493;50.928;7.172;2023-04-24T12:10:38;3.13;;;0.70;;
12848;SDS011;6493;50.928;7.172;2023-04-24T12:15:41;1.07;;;0.50;;
12848;SDS011;6493;50.928;7.172;2023-04-24T12:20:46;0.90;;;0.60;;
12848;SDS011;6493;50.928;7.172;2023-04-24T12:25:50;0.70;;;0.60;;
12848;SDS011;6493;50.928;7.172;2023-04-24T12:30:56;1.40;;;0.90;;
12848;SDS011;6493;50.928;7.172;2023-04-24T12:36:02;2.03;;;0.80;;
12848;SDS011;6493;50.928;7.172;2023-04-24T12:41:07;1.17;;;0.60;;
12848;SDS011;6493;50.928;7.172;2023-04-24T12:46:11;0.87;;;0.70;;
12848;SDS011;6493;50.928;7.172;2023-04-24T12:51:19;1.30;;;0.90;;
12848;SDS011;6493;50.928;7.172;2023-04-24T12:56:22;1.73;;;0.80;;
12848;SDS011;6493;50.928;7.172;2023-04-24T13:01:26;2.17;;;0.90;;
12848;SDS011;6493;50.928;7.172;2023-04-24T13:06:30;2.30;;;0.90;;
12848;SDS011;6493;50.928;7.172;2023-04-24T13:11:34;1.33;;;0.80;;
12848;SDS011;6493;50.928;7.172;2023-04-24T13:16:37;1.40;;;0.70;;
12848;SDS011;6493;50.928;7.172;2023-04-24T13:21:42;1.57;;;0.70;;
12848;SDS011;6493;50.928;7.172;2023-04-24T13:26:46;1.00;;;0.80;;
12848;SDS011;6493;50.928;7.172;2023-04-24T13:31:49;1.97;;;0.73;;
12848;SDS011;6493;50.928;7.172;2023-04-24T13:36:55;2.73;;;1.50;;
12848;SDS011;6493;50.928;7.172;2023-04-24T13:41:59;2.33;;;1.57;;
12848;SDS011;6493;50.928;7.172;2023-04-24T13:47:05;2.33;;;1.53;;
12848;SDS011;6493;50.928;7.172;2023-04-24T13:52:10;1.63;;;1.20;;
12848;SDS011;6493;50.928;7.172;2023-04-24T13:57:13;3.53;;;1.30;;
12848;SDS011;6493;50.928;7.172;2023-04-24T14:02:17;1.33;;;0.90;;
12848;SDS011;6493;50.928;7.172;2023-04-24T14:07:22;1.27;;;0.97;;
12848;SDS011;6493;50.928;7.172;2023-04-24T14:12:25;1.10;;;0.80;;
12848;SDS011;6493;50.928;7.172;2023-04-24T14:17:28;1.17;;;0.83;;
12848;SDS011;6493;50.928;7.172;2023-04-24T14:22:33;1.40;;;0.80;;
12848;SDS011;6493;50.928;7.172;2023-04-24T14:27:36;1.90;;;1.20;;
12848;SDS011;6493;50.928;7.172;2023-04-24T14:32:41;1.17;;;0.80;;
12848;SDS011;6493;50.928;7.172;2023-04-24T14:37:45;0.77;;;0.73;;
12848;SDS011;6493;50.928;7.172;2023-04-24T14:42:50;2.73;;;0.73;;
12848;SDS011;6493;50.928;7.172;2023-04-24T14:47:53;2.20;;;1.00;;
12848;SDS011;6493;50.928;7.172;2023-04-24T14:52:59;0.50;;;0.50;;
12848;SDS011;6493;50.928;7.172;2023-04-24T14:58:03;2.20;;;1.00;;
12848;SDS011;6493;50.928;7.172;2023-04-24T15:03:06;1.37;;;1.00;;
12848;SDS011;6493;50.928;7.172;2023-04-24T15:08:12;1.93;;;1.23;;
12848;SDS011;6493;50.928;7.172;2023-04-24T15:13:15;1.80;;;0.80;;
12848;SDS011;6493;50.928;7.172;2023-04-24T15:18:18;1.30;;;1.20;;
12848;SDS011;6493;50.928;7.172;2023-04-24T15:23:22;2.30;;;1.40;;
12848;SDS011;6493;50.928;7.172;2023-04-24T15:28:25;1.90;;;1.07;;
12848;SDS011;6493;50.928;7.172;2023-04-24T15:33:29;1.13;;;0.80;;
12848;SDS011;6493;50.928;7.172;2023-04-24T15:38:33;1.63;;;0.80;;
12848;SDS011;6493;50.928;7.172;2023-04-24T15:43:36;1.73;;;0.90;;
12848;SDS011;6493;50.928;7.172;2023-04-24T15:48:41;1.23;;;0.60;;
12848;SDS011;6493;50.928;7.172;2023-04-24T15:53:48;0.87;;;0.67;;
12848;SDS011;6493;50.928;7.172;2023-04-24T15:58:51;1.00;;;0.70;;
12848;SDS011;6493;50.928;7.172;2023-04-24T16:03:54;0.90;;;0.80;;
12848;SDS011;6493;50.928;7.172;2023-04-24T16:08:59;0.80;;;0.80;;
12848;SDS011;6493;50.928;7.172;2023-04-24T16:14:04;1.83;;;1.20;;
12848;SDS011;6493;50.928;7.172;2023-04-24T16:19:10;1.13;;;0.90;;
12848;SDS011;6493;50.928;7.172;2023-04-24T16:24:15;1.13;;;0.77;;
12848;SDS011;6493;50.928;7.172;2023-04-24T16:29:19;1.13;;;0.70;;
12848;SDS011;6493;50.928;7.172;2023-04-24T16:34:22;1.30;;;0.60;;
12848;SDS011;6493;50.928;7.172;2023-04-24T16:39:27;1.13;;;0.63;;
12848;SDS011;6493;50.928;7.172;2023-04-24T16:44:30;0.93;;;0.83;;
12848;SDS011;6493;50.928;7.172;2023-04-24T16:49:33;1.03;;;0.87;;
12848;SDS011;6493;50.928;7.172;2023-04-24T16:54:38;1.23;;;0.83;;
12848;SDS011;6493;50.928;7.172;2023-04-24T16:59:41;0.50;;;0.50;;
12848;SDS011;6493;50.928;7.172;2023-04-24T17:04:44;2.13;;;0.80;;
12848;SDS011;6493;50.928;7.172;2023-04-24T17:09:49;0.50;;;0.50;;
12848;SDS011;6493;50.928;7.172;2023-04-24T17:14:53;0.60;;;0.60;;
12848;SDS011;6493;50.928;7.172;2023-04-24T17:19:56;0.60;;;0.60;;
12848;SDS011;6493;50.928;7.172;2023-04-24T17:25:05;1.43;;;0.70;;
12848;SDS011;6493;50.928;7.172;2023-04-24T17:30:09;1.03;;;0.63;;
12848;SDS011;6493;50.928;7.172;2023-04-24T17:35:13;0.80;;;0.50;;
12848;SDS011;6493;50.928;7.172;2023-04-24T17:40:18;0.47;;;0.40;;
12848;SDS011;6493;50.928;7.172;2023-04-24T17:45:21;1.07;;;0.57;;
12848;SDS011;6493;50.928;7.172;2023-04-24T17:50:24;0.63;;;0.37;;
12848;SDS011;6493;50.928;7.172;2023-04-24T17:55:28;0.47;;;0.47;;
12848;SDS011;6493;50.928;7.172;2023-04-24T18:00:32;0.93;;;0.40;;
12848;SDS011;6493;50.928;7.172;2023-04-24T18:05:36;0.60;;;0.40;;
12848;SDS011;6493;50.928;7.172;2023-04-24T18:10:41;0.40;;;0.40;;
12848;SDS011;6493;50.928;7.172;2023-04-24T18:15:45;1.13;;;0.40;;
12848;SDS011;6493;50.928;7.172;2023-04-24T18:20:48;0.40;;;0.37;;
12848;SDS011;6493;50.928;7.172;2023-04-24T18:25:53;0.30;;;0.30;;
12848;SDS011;6493;50.928;7.172;2023-04-24T18:30:56;0.70;;;0.40;;
12848;SDS011;6493;50.928;7.172;2023-04-24T18:35:59;0.30;;;0.20;;
12848;SDS011;6493;50.928;7.172;2023-04-24T18:41:05;0.47;;;0.20;;
12848;SDS011;6493;50.928;7.172;2023-04-24T18:46:08;0.20;;;0.20;;
12848;SDS011;6493;50.928;7.172;2023-04-24T18:51:11;0.30;;;0.30;;
12848;SDS011;6493;50.928;7.172;2023-04-24T18:56:16;0.40;;;0.40;;
12848;SDS011;6493;50.928;7.172;2023-04-24T19:01:19;0.30;;;0.30;;
12848;SDS011;6493;50.928;7.172;2023-04-24T19:06:23;0.77;;;0.33;;
12848;SDS011;6493;50.928;7.172;2023-04-24T19:11:28;0.40;;;0.30;;
12848;SDS011;6493;50.928;7.172;2023-04-24T19:16:32;0.77;;;0.50;;
12848;SDS011;6493;50.928;7.172;2023-04-24T19:21:35;0.30;;;0.30;;
12848;SDS011;6493;50.928;7.172;2023-04-24T19:26:39;0.80;;;0.40;;
12848;SDS011;6493;50.928;7.172;2023-04-24T19:31:42;0.93;;;0.30;;
12848;SDS011;6493;50.928;7.172;2023-04-24T19:36:46;0.50;;;0.30;;
12848;SDS011;6493;50.928;7.172;2023-04-24T19:41:50;0.93;;;0.60;;
12848;SDS011;6493;50.928;7.172;2023-04-24T19:46:53;0.63;;;0.40;;
12848;SDS011;6493;50.928;7.172;2023-04-24T19:51:56;0.40;;;0.40;;
12848;SDS011;6493;50.928;7.172;2023-04-24T19:57:01;0.40;;;0.30;;
12848;SDS011;6493;50.928;7.172;2023-04-24T20:02:04;0.57;;;0.40;;
12848;SDS011;6493;50.928;7.172;2023-04-24T20:07:07;2.50;;;0.30;;
12848;SDS011;6493;50.928;7.172;2023-04-24T20:12:12;0.40;;;0.40;;
12848;SDS011;6493;50.928;7.172;2023-04-24T20:17:16;0.60;;;0.40;;
12848;SDS011;6493;50.928;7.172;2023-04-24T20:22:19;0.50;;;0.40;;
12848;SDS011;6493;50.928;7.172;2023-04-24T20:27:23;0.50;;;0.30;;
12848;SDS011;6493;50.928;7.172;2023-04-24T20:32:26;0.20;;;0.20;;
12848;SDS011;6493;50.928;7.172;2023-04-24T20:37:30;0.67;;;0.47;;
12848;SDS011;6493;50.928;7.172;2023-04-24T20:42:34;0.40;;;0.33;;
12848;SDS011;6493;50.928;7.172;2023-04-24T20:47:38;0.67;;;0.30;;
12848;SDS011;6493;50.928;7.172;2023-04-24T20:52:41;0.47;;;0.30;;
12848;SDS011;6493;50.928;7.172;2023-04-24T20:57:46;0.43;;;0.30;;
12848;SDS011;6493;50.928;7.172;2023-04-24T21:02:49;0.70;;;0.53;;
12848;SDS011;6493;50.928;7.172;2023-04-24T21:07:52;0.47;;;0.40;;
12848;SDS011;6493;50.928;7.172;2023-04-24T21:12:57;0.30;;;0.20;;
12848;SDS011;6493;50.928;7.172;2023-04-24T21:18:01;0.77;;;0.40;;
12848;SDS011;6493;50.928;7.172;2023-04-24T21:23:05;0.43;;;0.40;;
12848;SDS011;6493;50.928;7.172;2023-04-24T21:28:09;0.50;;;0.50;;
12848;SDS011;6493;50.928;7.172;2023-04-24T21:33:13;1.00;;;0.47;;
12848;SDS011;6493;50.928;7.172;2023-04-24T21:38:16;1.00;;;0.43;;
12848;SDS011;6493;50.928;7.172;2023-04-24T21:43:21;1.53;;;0.60;;
12848;SDS011;6493;50.928;7.172;2023-04-24T21:48:41;1.83;;;0.50;;
12848;SDS011;6493;50.928;7.172;2023-04-24T21:53:44;0.40;;;0.40;;
12848;SDS011;6493;50.928;7.172;2023-04-24T21:58:49;0.50;;;0.50;;
12848;SDS011;6493;50.928;7.172;2023-04-24T22:03:53;0.70;;;0.40;;
12848;SDS011;6493;50.928;7.172;2023-04-24T22:08:57;0.70;;;0.30;;
12848;SDS011;6493;50.928;7.172;2023-04-24T22:14:01;0.40;;;0.30;;
12848;SDS011;6493;50.928;7.172;2023-04-24T22:19:04;0.70;;;0.40;;
12848;SDS011;6493;50.928;7.172;2023-04-24T22:24:07;1.03;;;0.40;;
12848;SDS011;6493;50.928;7.172;2023-04-24T22:29:12;2.30;;;0.70;;
12848;SDS011;6493;50.928;7.172;2023-04-24T22:34:15;0.50;;;0.50;;
12848;SDS011;6493;50.928;7.172;2023-04-24T22:39:20;0.57;;;0.57;;
12848;SDS011;6493;50.928;7.172;2023-04-24T22:44:24;0.87;;;0.60;;
12848;SDS011;6493;50.928;7.172;2023-04-24T22:49:27;0.50;;;0.40;;
12848;SDS011;6493;50.928;7.172;2023-04-24T22:54:30;0.57;;;0.50;;
12848;SDS011;6493;50.928;7.172;2023-04-24T22:59:36;0.50;;;0.50;;
12848;SDS011;6493;50.928;7.172;2023-04-24T23:04:39;1.10;;;0.57;;
12848;SDS011;6493;50.928;7.172;2023-04-24T23:09:42;1.10;;;0.50;;
12848;SDS011;6493;50.928;7.172;2023-04-24T23:14:47;1.20;;;0.87;;
12848;SDS011;6493;50.928;7.172;2023-04-24T23:19:50;1.23;;;0.50;;
12848;SDS011;6493;50.928;7.172;2023-04-24T23:24:53;0.93;;;0.40;;
12848;SDS011;6493;50.928;7.172;2023-04-24T23:29:58;0.90;;;0.40;;
12848;SDS011;6493;50.928;7.172;2023-04-24T23:35:01;2.30;;;0.80;;
12848;SDS011;6493;50.928;7.172;2023-04-24T23:40:05;1.77;;;0.60;;
12848;SDS011;6493;50.928;7.172;2023-04-24T23:45:11;1.80;;;0.50;;
12848;SDS011;6493;50.928;7.172;2023-04-24T23:50:14;1.33;;;0.60;;
12848;SDS011;6493;50.928;7.172;2023-04-24T23:55:18;1.83;;;0.80;;
